Time;durP1;ratioP1;P1;durP2;ratioP2;P2;SDS_P1;SDS_P2;PMS_P1;PMS_P2;Temp;Humidity;BMP_temperature;BMP_pressure;BME280_temperature;BME280_humidity;BME280_pressure;Samples;Min_cycle;Max_cycle;Signal;HPM_P1;HPM_P2
2021/08/11 00:00:56;;;;;;;;;;;13.80;99.90;;;;;;5062007;28;20040;-65
2021/08/11 00:03:22;;;;;;;9.63;3.70;;;13.80;99.90;;;;;;5062410;28;19975;-66
2021/08/11 00:05:47;;;;;;;;;;;13.80;99.90;;;;;;5063552;28;20616;-65
2021/08/11 00:08:12;;;;;;;5.40;2.80;;;13.90;99.90;;;;;;5075662;28;19920;-66
2021/08/11 00:10:39;;;;;;;;;;;13.90;99.90;;;;;;5083223;28;20047;-65
2021/08/11 00:13:04;;;;;;;5.97;2.60;;;13.80;99.90;;;;;;5081893;28;19986;-65
2021/08/11 00:15:30;;;;;;;;;;;13.90;99.90;;;;;;5070904;28;20519;-66
2021/08/11 00:17:55;;;;;;;10.00;3.00;;;13.90;99.90;;;;;;5073610;28;20123;-65
2021/08/11 00:20:24;;;;;;;;;;;13.90;99.90;;;;;;5068745;28;20044;-66
2021/08/11 00:22:49;;;;;;;7.18;3.08;;;13.90;99.90;;;;;;5068729;28;19912;-65
2021/08/11 00:25:15;;;;;;;;;;;14.00;99.90;;;;;;5068472;28;20036;-66
2021/08/11 00:27:40;;;;;;;4.60;2.95;;;13.90;99.90;;;;;;5068321;28;19959;-65
2021/08/11 00:30:06;;;;;;;;;;;13.90;99.90;;;;;;5069428;28;20036;-65
2021/08/11 00:32:32;;;;;;;7.35;2.63;;;13.90;99.90;;;;;;5068280;28;19978;-65
2021/08/11 00:34:57;;;;;;;;;;;13.90;99.90;;;;;;5069651;28;20060;-65
2021/08/11 00:37:23;;;;;;;6.10;3.33;;;13.90;99.90;;;;;;5068914;28;19927;-66
2021/08/11 00:39:48;;;;;;;;;;;13.90;99.90;;;;;;5068938;28;20524;-66
2021/08/11 00:42:14;;;;;;;11.32;3.25;;;13.90;99.90;;;;;;5067343;28;19924;-65
2021/08/11 00:44:39;;;;;;;;;;;13.90;99.90;;;;;;5069199;28;20040;-65
2021/08/11 00:47:05;;;;;;;13.25;3.85;;;13.90;99.90;;;;;;5067381;28;20007;-65
2021/08/11 00:49:31;;;;;;;7.45;3.53;;;13.90;99.90;;;;;;5068306;28;20036;-66
2021/08/11 00:51:58;;;;;;;;;;;13.80;99.90;;;;;;5069042;28;20507;-66
2021/08/11 00:54:25;;;;;;;5.40;3.70;;;13.80;99.90;;;;;;5068008;28;20099;-65
2021/08/11 00:56:53;;;;;;;5.45;3.20;;;13.80;99.90;;;;;;5067169;28;20155;-66
2021/08/11 00:59:21;;;;;;;6.68;2.92;;;13.80;99.90;;;;;;5052608;28;20412;-66
2021/08/11 01:01:50;;;;;;;5.90;2.65;;;13.80;99.90;;;;;;5046906;28;20037;-66
2021/08/11 01:04:17;;;;;;;5.75;2.55;;;13.90;99.90;;;;;;5047828;28;20048;-65
2021/08/11 01:06:44;;;;;;;7.93;3.10;;;13.90;99.90;;;;;;5047860;28;20381;-66
2021/08/11 01:09:14;;;;;;;8.60;3.58;;;13.90;99.90;;;;;;5067547;28;20372;-66
2021/08/11 01:11:44;;;;;;;9.23;3.58;;;13.90;99.90;;;;;;5067923;28;20076;-66
2021/08/11 01:14:10;;;;;;;6.60;3.20;;;13.90;99.90;;;;;;5068148;28;20036;-66
2021/08/11 01:16:36;;;;;;;9.48;3.00;;;13.90;99.90;;;;;;5066988;28;20419;-66
2021/08/11 01:19:01;;;;;;;;;;;13.80;99.90;;;;;;5067603;28;20032;-66
2021/08/11 01:21:37;;;;;;;9.13;3.30;;;13.90;99.90;;;;;;5067009;28;20447;-66
2021/08/11 01:24:26;;;;;;;3.67;2.75;;;13.90;99.90;;;;;;5067913;28;20517;-66
2021/08/11 01:27:04;;;;;;;4.28;2.70;;;13.90;99.90;;;;;;5066395;28;20057;-66
2021/08/11 01:29:54;;;;;;;10.45;2.58;;;13.90;99.90;;;;;;5064868;28;20051;-66
2021/08/11 01:32:46;;;;;;;5.85;3.25;;;13.80;99.90;;;;;;5066584;28;20037;-66
2021/08/11 01:35:15;;;;;;;6.93;4.10;;;13.80;99.90;;;;;;5066563;28;20037;-66
2021/08/11 01:37:42;;;;;;;6.50;4.45;;;13.70;99.90;;;;;;5066759;28;20049;-66
2021/08/11 01:40:12;;;;;;;10.05;4.47;;;13.70;99.90;;;;;;5067178;28;20090;-67
2021/08/11 01:42:41;;;;;;;7.95;3.80;;;13.70;99.90;;;;;;5067380;28;20068;-66
2021/08/11 01:45:12;;;;;;;8.52;4.13;;;13.70;99.90;;;;;;5066588;28;20047;-66
2021/08/11 01:47:45;;;;;;;5.38;3.60;;;13.70;99.90;;;;;;5066571;28;20075;-66
2021/08/11 01:50:14;;;;;;;6.72;4.35;;;13.60;99.90;;;;;;5065910;28;20127;-66
2021/08/11 01:52:43;;;;;;;9.98;3.70;;;13.60;99.90;;;;;;5057974;28;20060;-66
2021/08/11 01:55:11;;;;;;;9.10;4.10;;;13.70;99.90;;;;;;5067546;28;20076;-66
2021/08/11 01:57:44;;;;;;;5.78;4.15;;;13.70;99.90;;;;;;5067029;28;20117;-66
2021/08/11 02:00:11;;;;;;;7.47;4.90;;;13.70;99.90;;;;;;5066654;28;20071;-66
2021/08/11 02:02:37;;;;;;;10.82;5.18;;;13.70;99.90;;;;;;5066772;28;20044;-66
2021/08/11 02:05:09;;;;;;;7.43;4.50;;;13.70;99.90;;;;;;5066791;28;20064;-67
2021/08/11 02:07:36;;;;;;;8.68;3.88;;;13.70;99.90;;;;;;5066420;28;20040;-66
2021/08/11 02:10:05;;;;;;;6.75;3.95;;;13.70;99.90;;;;;;5066685;28;20047;-66
2021/08/11 02:12:30;;;;;;;10.55;4.15;;;13.80;99.90;;;;;;5067213;28;20049;-66
2021/08/11 02:14:56;;;;;;;;;;;13.80;99.90;;;;;;5062761;28;20255;-66
2021/08/11 02:17:22;;;;;;;9.43;5.30;;;13.70;99.90;;;;;;5065329;28;20007;-66
2021/08/11 02:19:47;;;;;;;;;;;13.70;99.90;;;;;;5066556;28;20044;-66
2021/08/11 02:22:13;;;;;;;16.85;5.95;;;13.70;99.90;;;;;;5066719;28;19920;-66
2021/08/11 02:24:39;;;;;;;;;;;13.70;99.90;;;;;;5066881;28;20106;-66
2021/08/11 02:27:12;;;;;;;7.53;4.97;;;13.60;99.90;;;;;;5066802;28;19998;-66
2021/08/11 02:29:58;;;;;;;9.63;5.80;;;13.70;99.90;;;;;;5066284;28;20074;-66
2021/08/11 02:33:09;;;;;;;12.52;5.88;;;13.70;99.90;;;;;;5067346;28;20043;-66
2021/08/11 02:35:48;;;;;;;9.77;5.60;;;13.70;99.90;;;;;;5062226;28;20586;-66
2021/08/11 02:38:21;;;;;;;9.73;6.50;;;13.70;99.90;;;;;;5066163;28;20052;-66
2021/08/11 02:40:51;;;;;;;11.90;6.38;;;13.80;99.90;;;;;;5065517;28;20041;-66
2021/08/11 02:43:20;;;;;;;11.55;5.75;;;13.70;99.90;;;;;;5066421;28;20043;-67
2021/08/11 02:45:52;;;;;;;11.38;6.80;;;13.70;99.90;;;;;;5065230;28;20044;-65
2021/08/11 02:48:19;;;;;;;16.90;8.60;;;13.70;99.90;;;;;;5065244;28;20044;-66
2021/08/11 02:50:45;;;;;;;11.02;6.80;;;13.70;99.90;;;;;;5065811;28;20618;-66
2021/08/11 02:53:13;;;;;;;;;;;13.70;99.90;;;;;;5067013;28;20420;-66
2021/08/11 02:55:39;;;;;;;14.23;7.90;;;13.70;99.90;;;;;;5066103;28;19916;-66
2021/08/11 02:58:06;;;;;;;14.07;7.93;;;13.70;99.90;;;;;;5065435;28;20093;-66
2021/08/11 03:00:33;;;;;;;14.10;9.80;;;13.80;99.90;;;;;;5065446;28;20044;-66
2021/08/11 03:02:59;;;;;;;16.50;9.98;;;13.80;99.90;;;;;;5065893;28;20045;-66
2021/08/11 03:05:24;;;;;;;;;;;13.80;99.90;;;;;;5065288;28;20135;-66
2021/08/11 03:07:50;;;;;;;16.73;10.35;;;13.80;99.90;;;;;;5066278;28;20003;-66
2021/08/11 03:10:16;;;;;;;;;;;13.80;99.90;;;;;;5066120;28;20041;-66
2021/08/11 03:12:46;;;;;;;38.85;25.48;;;13.80;99.90;;;;;;5065700;28;19923;-68
2021/08/11 03:15:13;;;;;;;53.30;33.47;;;13.80;99.90;;;;;;5065015;28;20036;-69
2021/08/11 03:17:39;;;;;;;37.80;21.70;;;13.80;99.90;;;;;;5065725;28;20037;-67
2021/08/11 03:20:07;;;;;;;77.97;46.75;;;13.80;99.90;;;;;;5065667;28;20071;-67
2021/08/11 03:22:33;;;;;;;24.42;17.10;;;13.80;99.90;;;;;;5067465;28;20120;-67
2021/08/11 03:24:59;;;;;;;;;;;13.80;99.90;;;;;;5067731;28;20785;-67
2021/08/11 03:27:24;;;;;;;22.70;12.80;;;13.80;99.90;;;;;;5065934;28;19921;-67
2021/08/11 03:29:50;;;;;;;;;;;13.80;99.90;;;;;;5066143;28;20532;-68
2021/08/11 03:32:16;;;;;;;22.25;13.18;;;13.80;99.90;;;;;;5065359;28;19923;-67
2021/08/11 03:34:41;;;;;;;;;;;13.80;99.90;;;;;;5065703;28;20053;-67
2021/08/11 03:37:07;;;;;;;22.13;13.70;;;13.80;99.90;;;;;;5064520;28;20006;-67
2021/08/11 03:39:33;;;;;;;;;;;13.80;99.90;;;;;;5066604;28;20051;-67
2021/08/11 03:41:58;;;;;;;31.38;21.48;;;13.80;99.90;;;;;;5066204;28;19978;-69
2021/08/11 03:44:24;;;;;;;;;;;13.80;99.90;;;;;;5067360;28;20640;-67
2021/08/11 03:46:50;;;;;;;26.88;16.80;;;13.80;99.90;;;;;;5065070;28;19920;-67
2021/08/11 03:49:15;;;;;;;;;;;13.80;99.90;;;;;;5067074;28;20180;-68
2021/08/11 03:51:41;;;;;;;44.72;21.95;;;13.80;99.90;;;;;;5065626;28;19927;-68
2021/08/11 03:54:06;;;;;;;;;;;13.80;99.90;;;;;;5064166;28;20835;-68
2021/08/11 03:56:32;;;;;;;27.60;16.20;;;13.80;99.90;;;;;;5069513;28;19912;-67
2021/08/11 03:58:57;;;;;;;;;;;13.80;99.90;;;;;;5056056;28;20039;-67
2021/08/11 04:01:23;;;;;;;28.65;16.55;;;13.80;99.90;;;;;;5048832;28;19917;-67
2021/08/11 04:03:48;;;;;;;;;;;13.70;99.90;;;;;;5049319;28;20036;-68
2021/08/11 04:06:14;;;;;;;28.13;16.23;;;13.80;99.90;;;;;;5048916;28;19921;-66
2021/08/11 04:08:39;;;;;;;;;;;13.80;99.90;;;;;;5066064;28;20512;-67
2021/08/11 04:11:05;;;;;;;131.65;77.88;;;13.80;99.90;;;;;;5068866;28;20356;-68
2021/08/11 04:13:30;;;;;;;;;;;13.90;99.90;;;;;;5069943;28;20540;-71
2021/08/11 04:15:56;;;;;;;47.58;30.02;;;13.90;99.90;;;;;;5066957;28;19924;-67
2021/08/11 04:18:22;;;;;;;;;;;13.90;99.90;;;;;;5068724;28;20036;-68
2021/08/11 04:20:47;;;;;;;60.70;36.95;;;13.90;99.90;;;;;;5068215;28;19912;-68
2021/08/11 04:23:13;;;;;;;;;;;13.90;99.90;;;;;;5069879;28;20385;-69
2021/08/11 04:25:40;;;;;;;38.10;23.13;;;13.90;99.90;;;;;;5066972;28;19973;-68
2021/08/11 04:28:07;;;;;;;30.27;17.40;;;13.90;99.90;;;;;;5060562;28;20055;-68
2021/08/11 04:30:33;;;;;;;21.15;13.85;;;13.90;99.90;;;;;;5068790;28;20488;-69
2021/08/11 04:32:58;;;;;;;;;;;13.90;99.90;;;;;;5069116;28;20051;-70
2021/08/11 04:35:24;;;;;;;19.88;13.55;;;13.90;99.90;;;;;;5068650;28;20379;-69
2021/08/11 04:37:49;;;;;;;;;;;13.90;99.90;;;;;;5069312;28;20496;-69
2021/08/11 04:40:15;;;;;;;22.23;12.38;;;14.00;99.90;;;;;;5068328;28;19916;-69
2021/08/11 04:42:41;;;;;;;;;;;14.00;99.90;;;;;;5067838;28;20128;-69
2021/08/11 04:45:07;;;;;;;20.33;11.85;;;13.90;99.90;;;;;;5068376;28;19970;-69
2021/08/11 04:47:33;;;;;;;18.95;12.80;;;14.00;99.90;;;;;;5068294;28;20044;-69
2021/08/11 04:49:59;;;;;;;;;;;14.00;99.90;;;;;;5066084;28;20032;-70
2021/08/11 04:52:24;;;;;;;19.33;13.02;;;14.10;99.90;;;;;;5066288;28;20383;-69
2021/08/11 04:54:50;;;;;;;;;;;14.10;99.90;;;;;;5065990;28;21227;-69
2021/08/11 04:57:16;;;;;;;18.02;11.00;;;14.10;99.90;;;;;;5060278;28;19923;-69
2021/08/11 04:59:41;;;;;;;;;;;14.20;99.90;;;;;;5068654;28;20558;-70
2021/08/11 05:02:07;;;;;;;17.90;12.30;;;14.20;99.90;;;;;;5067100;28;19916;-70
2021/08/11 05:04:32;;;;;;;;;;;14.20;99.90;;;;;;5068450;28;20028;-69
2021/08/11 05:06:58;;;;;;;14.98;10.40;;;14.20;99.90;;;;;;5064539;28;19975;-70
2021/08/11 05:09:24;;;;;;;;;;;14.20;99.90;;;;;;5060772;28;20386;-69
2021/08/11 05:11:50;;;;;;;20.08;11.15;;;14.20;99.90;;;;;;5053469;28;19921;-69
2021/08/11 05:14:15;;;;;;;;;;;14.10;99.90;;;;;;5059207;28;20036;-70
2021/08/11 05:16:41;;;;;;;22.20;11.00;;;14.10;99.90;;;;;;5060026;28;20511;-69
2021/08/11 05:19:06;;;;;;;;;;;14.10;99.90;;;;;;5068018;28;20029;-70
2021/08/11 05:21:33;;;;;;;17.02;11.20;;;14.10;99.90;;;;;;5067129;28;19916;-69
2021/08/11 05:23:59;;;;;;;24.00;11.85;;;14.00;99.90;;;;;;5068010;28;20519;-70
2021/08/11 05:26:24;;;;;;;;;;;14.10;99.90;;;;;;5068591;28;20040;-70
2021/08/11 05:28:50;;;;;;;16.05;10.10;;;14.20;99.90;;;;;;5069218;28;19925;-70
2021/08/11 05:31:16;;;;;;;;;;;14.20;99.90;;;;;;5068523;28;20064;-69
2021/08/11 05:33:42;;;;;;;26.85;17.15;;;14.20;99.90;;;;;;5067773;28;19920;-69
2021/08/11 05:36:07;;;;;;;;;;;14.20;99.90;;;;;;5067850;28;20036;-70
2021/08/11 05:38:34;;;;;;;44.88;26.42;;;14.20;99.90;;;;;;5068098;28;20030;-69
2021/08/11 05:41:00;;;;;;;23.75;13.48;;;14.40;99.90;;;;;;5068480;28;20049;-69
2021/08/11 05:43:26;;;;;;;;;;;14.40;99.90;;;;;;5067608;28;20048;-69
2021/08/11 05:45:51;;;;;;;18.45;12.07;;;14.40;99.90;;;;;;5066844;28;19978;-69
2021/08/11 05:48:18;;;;;;;;;;;14.40;99.90;;;;;;5068137;28;20051;-69
2021/08/11 05:50:44;;;;;;;55.47;34.67;;;14.40;99.90;;;;;;5067196;28;19916;-69
2021/08/11 05:53:09;;;;;;;;;;;14.50;99.90;;;;;;5062694;28;20615;-69
2021/08/11 05:55:35;;;;;;;18.67;11.60;;;14.60;99.90;;;;;;5066885;28;19995;-69
2021/08/11 05:58:00;;;;;;;;;;;14.70;99.90;;;;;;5064138;28;20040;-69
2021/08/11 06:00:26;;;;;;;47.10;32.55;;;14.80;99.90;;;;;;5046755;28;20201;-69
2021/08/11 06:02:52;;;;;;;;;;;14.90;99.90;;;;;;5047432;28;20040;-69
2021/08/11 06:05:17;;;;;;;13.93;10.05;;;15.00;99.90;;;;;;5047370;28;19930;-69
2021/08/11 06:07:43;;;;;;;;;;;15.10;99.90;;;;;;5055636;28;20497;-69
2021/08/11 06:10:09;;;;;;;19.95;11.25;;;15.20;99.90;;;;;;5066863;28;19995;-69
2021/08/11 06:12:34;;;;;;;;;;;15.30;99.90;;;;;;5067350;28;20037;-69
2021/08/11 06:15:00;;;;;;;16.25;8.70;;;15.30;99.90;;;;;;5067414;28;19920;-69
2021/08/11 06:17:26;;;;;;;10.07;7.18;;;15.30;99.90;;;;;;5064529;28;20462;-69
2021/08/11 06:19:52;;;;;;;;;;;15.60;99.90;;;;;;5056920;28;20110;-68
2021/08/11 06:22:17;;;;;;;12.00;5.93;;;16.10;99.90;;;;;;5066200;28;19938;-69
2021/08/11 06:24:43;;;;;;;;;;;16.20;99.90;;;;;;5067524;28;20120;-70
2021/08/11 06:27:09;;;;;;;7.70;6.15;;;16.20;99.90;;;;;;5066241;28;19921;-69
2021/08/11 06:29:34;;;;;;;7.93;5.80;;;16.30;99.90;;;;;;5064071;28;20044;-69
2021/08/11 06:32:02;;;;;;;;;;;16.50;99.90;;;;;;5066126;28;20454;-69
2021/08/11 06:34:28;;;;;;;10.10;5.95;;;16.30;99.90;;;;;;5066649;28;20395;-69
2021/08/11 06:36:53;;;;;;;;;;;16.30;99.90;;;;;;5065866;28;20047;-69
2021/08/11 06:39:19;;;;;;;8.18;5.82;;;16.80;99.90;;;;;;5066720;28;19916;-70
2021/08/11 06:41:45;;;;;;;9.65;6.20;;;16.90;99.90;;;;;;5066210;28;20040;-69
2021/08/11 06:44:11;;;;;;;;;;;17.10;99.90;;;;;;5066288;28;20084;-69
2021/08/11 06:46:37;;;;;;;10.07;5.38;;;17.50;99.90;;;;;;5065539;28;19921;-69
2021/08/11 06:49:02;;;;;;;;;;;18.40;99.90;;;;;;5066918;28;20545;-70
2021/08/11 06:51:28;;;;;;;13.15;5.40;;;18.40;99.90;;;;;;5065866;28;19947;-69
2021/08/11 06:53:53;;;;;;;;;;;17.80;99.90;;;;;;5066268;28;20040;-70
2021/08/11 06:56:19;;;;;;;7.20;4.80;;;17.40;99.90;;;;;;5066101;28;20388;-69
2021/08/11 06:58:45;;;;;;;8.48;5.00;;;16.90;99.90;;;;;;5066423;28;20076;-70
2021/08/11 07:01:10;;;;;;;9.38;4.43;;;16.60;99.90;;;;;;5065289;28;20454;-70
2021/08/11 07:03:36;;;;;;;19.25;4.63;;;16.50;99.90;;;;;;5067007;28;20045;-69
2021/08/11 07:06:03;;;;;;;8.60;4.40;;;16.40;99.90;;;;;;5066176;28;20062;-70
2021/08/11 07:08:28;;;;;;;9.05;4.20;;;16.40;99.90;;;;;;5066009;28;20127;-69
2021/08/11 07:10:54;;;;;;;;;;;16.40;99.90;;;;;;5050348;28;20129;-69
2021/08/11 07:13:20;;;;;;;8.30;4.00;;;16.40;99.90;;;;;;5046408;28;19974;-70
2021/08/11 07:15:46;;;;;;;5.65;4.22;;;16.40;99.90;;;;;;5046899;28;20116;-70
2021/08/11 07:18:19;;;;;;;;;;;16.30;99.90;;;;;;5066627;28;20643;-70
2021/08/11 07:20:46;;;;;;;8.35;4.13;;;16.30;99.90;;;;;;5066719;28;20027;-70
2021/08/11 07:23:12;;;;;;;8.80;5.13;;;16.40;99.90;;;;;;5066494;28;20076;-70
2021/08/11 07:25:37;;;;;;;6.72;4.45;;;16.30;99.90;;;;;;5066080;28;20134;-69
2021/08/11 07:28:03;;;;;;;;;;;16.40;99.90;;;;;;5068390;28;20135;-70
2021/08/11 07:30:29;;;;;;;10.35;4.90;;;16.50;99.90;;;;;;5069772;28;19916;-69
2021/08/11 07:32:54;;;;;;;;;;;16.60;99.90;;;;;;5070571;28;20040;-70
2021/08/11 07:35:20;;;;;;;26.65;10.95;;;16.60;99.90;;;;;;5069714;28;19962;-70
2021/08/11 07:37:47;;;;;;;;;;;16.60;99.90;;;;;;5070093;28;20135;-70
2021/08/11 07:40:13;;;;;;;8.68;4.90;;;16.70;99.90;;;;;;5069143;28;20003;-69
2021/08/11 07:42:40;;;;;;;5.97;4.03;;;16.70;99.90;;;;;;5069791;28;20562;-70
2021/08/11 07:45:07;;;;;;;6.13;4.10;;;16.80;99.90;;;;;;5069923;28;20059;-70
2021/08/11 07:47:32;;;;;;;5.18;3.53;;;16.90;99.90;;;;;;5068826;28;20540;-69
2021/08/11 07:49:58;;;;;;;;;;;17.00;99.90;;;;;;5070611;28;20040;-70
2021/08/11 07:52:23;;;;;;;5.57;4.13;;;17.10;99.90;;;;;;5067119;28;19916;-70
2021/08/11 07:54:49;;;;;;;;;;;17.00;99.90;;;;;;5069033;28;20037;-68
2021/08/11 07:57:14;;;;;;;6.25;3.25;;;17.00;99.90;;;;;;5069259;28;19928;-69
2021/08/11 07:59:40;;;;;;;;;;;17.10;99.90;;;;;;5069818;28;20123;-69
2021/08/11 08:02:10;;;;;;;5.53;3.80;;;17.20;99.90;;;;;;5069660;28;19920;-69
2021/08/11 08:04:35;;;;;;;5.30;3.70;;;17.30;99.90;;;;;;5069549;28;20447;-69
2021/08/11 08:07:01;;;;;;;;;;;17.50;99.90;;;;;;5069701;28;20047;-68
2021/08/11 08:09:26;;;;;;;12.00;7.40;;;18.00;99.90;;;;;;5069825;28;19924;-68
2021/08/11 08:11:52;;;;;;;10.57;3.90;;;19.40;99.90;;;;;;5069019;28;20041;-69
2021/08/11 08:14:18;;;;;;;5.25;3.65;;;21.20;98.10;;;;;;5069950;28;20533;-68
2021/08/11 08:16:43;;;;;;;6.72;3.75;;;22.20;92.90;;;;;;5069214;28;20040;-68
2021/08/11 08:19:09;;;;;;;5.07;3.03;;;23.20;93.40;;;;;;5066428;28;20037;-69
2021/08/11 08:21:35;;;;;;;4.13;2.97;;;23.50;92.30;;;;;;5064689;28;20559;-69
2021/08/11 08:24:00;;;;;;;5.85;3.20;;;23.40;92.40;;;;;;5068328;28;20052;-69
2021/08/11 08:26:26;;;;;;;4.95;2.75;;;22.90;92.30;;;;;;5063716;28;20072;-69
2021/08/11 08:28:51;;;;;;;5.20;3.00;;;22.40;93.50;;;;;;5068842;28;20032;-69
2021/08/11 08:31:17;;;;;;;4.22;2.90;;;22.90;92.40;;;;;;5069548;28;20120;-69
2021/08/11 08:33:43;;;;;;;4.88;3.10;;;23.30;91.40;;;;;;5069964;28;20143;-69
2021/08/11 08:36:10;;;;;;;5.38;3.33;;;23.20;91.10;;;;;;5070081;28;20048;-69
2021/08/11 08:38:36;;;;;;;4.55;3.22;;;22.80;92.70;;;;;;5069411;28;20111;-69
2021/08/11 08:41:02;;;;;;;3.83;2.95;;;22.10;93.20;;;;;;5069152;28;20159;-69
2021/08/11 08:43:28;;;;;;;9.07;3.28;;;21.90;95.10;;;;;;5070234;28;20464;-69
2021/08/11 08:45:54;;;;;;;3.60;3.00;;;21.70;95.90;;;;;;5069006;28;20080;-69
2021/08/11 08:48:20;;;;;;;4.65;3.45;;;21.50;96.30;;;;;;5069298;28;20174;-69
2021/08/11 08:50:48;;;;;;;7.25;5.50;;;21.20;96.20;;;;;;5069463;28;20377;-68
2021/08/11 08:53:21;;;;;;;5.47;3.90;;;21.10;95.80;;;;;;5069243;28;20045;-69
2021/08/11 08:55:46;;;;;;;6.97;3.60;;;21.00;96.00;;;;;;5068331;28;20410;-69
2021/08/11 08:58:12;;;;;;;4.00;3.05;;;20.70;95.60;;;;;;5068344;28;20036;-70
2021/08/11 09:00:38;;;;;;;6.22;4.20;;;20.20;96.70;;;;;;5069129;28;20032;-68
2021/08/11 09:03:05;;;;;;;5.10;3.85;;;19.90;97.00;;;;;;5070136;28;20036;-68
2021/08/11 09:05:30;;;;;;;5.35;3.38;;;19.80;97.60;;;;;;5069089;28;20508;-69
2021/08/11 09:07:56;;;;;;;6.78;4.43;;;19.90;97.80;;;;;;5068580;28;20079;-69
2021/08/11 09:10:31;;;;;;;5.15;3.65;;;19.70;98.10;;;;;;5068952;28;20044;-68
2021/08/11 09:13:11;;;;;;;6.68;3.92;;;19.90;99.60;;;;;;5069333;28;20119;-68
2021/08/11 09:15:49;;;;;;;8.13;4.45;;;19.80;97.70;;;;;;5068245;28;20396;-68
2021/08/11 09:18:27;;;;;;;6.15;3.97;;;19.70;98.10;;;;;;5068917;28;20044;-69
2021/08/11 09:21:03;;;;;;;7.65;4.00;;;19.70;98.80;;;;;;5067135;28;20044;-69
2021/08/11 09:23:50;;;;;;;6.45;4.00;;;19.70;97.20;;;;;;5068324;28;20143;-68
2021/08/11 09:26:29;;;;;;;6.47;4.40;;;19.90;97.60;;;;;;5068515;28;20335;-68
2021/08/11 09:29:05;;;;;;;8.18;4.78;;;20.10;97.80;;;;;;5068852;28;20044;-69
2021/08/11 09:31:31;;;;;;;7.13;4.68;;;20.20;97.70;;;;;;5068073;28;20055;-68
2021/08/11 09:33:59;;;;;;;5.68;4.20;;;20.20;96.50;;;;;;5068444;28;20044;-69
2021/08/11 09:36:25;;;;;;;6.45;3.28;;;20.30;97.90;;;;;;5067336;28;20040;-69
2021/08/11 09:38:55;;;;;;;;;;;20.10;96.80;;;;;;5066579;28;20040;-68
2021/08/11 09:41:20;;;;;;;7.43;3.40;;;19.80;96.80;;;;;;5068440;28;19964;-69
2021/08/11 09:43:46;;;;;;;;;;;19.60;98.90;;;;;;5068372;28;20075;-68
2021/08/11 09:46:27;;;;;;;6.43;3.83;;;19.50;98.90;;;;;;5057906;28;19924;-69
2021/08/11 09:48:52;;;;;;;7.60;4.47;;;19.50;99.90;;;;;;5068406;28;20138;-68
2021/08/11 09:51:18;;;;;;;;;;;19.40;98.60;;;;;;5068152;28;20139;-68
2021/08/11 09:53:45;;;;;;;6.07;4.65;;;19.40;98.20;;;;;;5068547;28;19927;-68
2021/08/11 09:56:12;;;;;;;7.32;4.85;;;19.50;99.70;;;;;;5068119;28;20079;-68
2021/08/11 09:58:43;;;;;;;8.15;5.30;;;19.30;98.20;;;;;;5067760;28;20496;-68
2021/08/11 10:01:17;;;;;;;6.97;4.60;;;19.30;99.50;;;;;;5067780;28;20115;-68
2021/08/11 10:04:04;;;;;;;6.20;3.90;;;19.10;99.40;;;;;;5068143;28;20043;-68
2021/08/11 10:06:32;;;;;;;6.28;4.82;;;19.10;99.90;;;;;;5067068;28;20158;-68
2021/08/11 10:09:17;;;;;;;7.05;4.82;;;18.90;99.80;;;;;;5067112;28;20075;-68
2021/08/11 10:11:48;;;;;;;10.23;4.93;;;18.90;99.90;;;;;;5067816;28;20064;-68
2021/08/11 10:14:16;;;;;;;7.93;4.95;;;18.90;99.90;;;;;;5067581;28;20171;-68
2021/08/11 10:16:42;;;;;;;10.20;4.80;;;19.20;99.90;;;;;;5066555;28;20040;-68
2021/08/11 10:19:10;;;;;;;9.13;4.78;;;19.20;99.90;;;;;;5067506;28;20264;-68
2021/08/11 10:22:00;;;;;;;6.93;4.82;;;19.40;99.90;;;;;;5067317;28;20500;-69
2021/08/11 10:24:27;;;;;;;10.05;5.80;;;19.70;99.20;;;;;;5050334;28;20089;-70
2021/08/11 10:26:54;;;;;;;7.07;5.03;;;19.60;98.10;;;;;;5068905;28;20036;-71
2021/08/11 10:29:21;;;;;;;9.85;5.85;;;19.80;98.50;;;;;;5044725;22;20075;-69
2021/08/11 10:31:47;;;;;;;8.15;5.00;;;19.60;98.40;;;;;;5060932;28;20590;-66
2021/08/11 10:34:13;;;;;;;;;;;19.50;99.30;;;;;;5066236;28;20186;-68
2021/08/11 10:36:43;;;;;;;9.00;5.90;;;19.40;99.10;;;;;;5063809;28;19920;-67
2021/08/11 10:39:09;;;;;;;8.32;6.13;;;19.20;98.50;;;;;;5065644;28;20139;-68
2021/08/11 10:41:36;;;;;;;7.75;5.75;;;19.20;99.90;;;;;;5065317;28;20032;-68
2021/08/11 10:44:04;;;;;;;8.00;5.93;;;19.30;99.50;;;;;;5066763;28;20075;-68
2021/08/11 10:46:39;;;;;;;9.70;5.90;;;19.30;99.60;;;;;;5064072;28;20123;-68
2021/08/11 10:49:07;;;;;;;7.43;5.88;;;19.30;99.30;;;;;;5027633;28;20400;-68
2021/08/11 10:51:43;;;;;;;9.00;6.13;;;19.20;99.40;;;;;;5051343;28;20063;-67
2021/08/11 10:54:10;;;;;;;;;;;19.30;99.90;;;;;;5038423;28;20032;-68
2021/08/11 10:56:47;;;;;;;10.40;6.60;;;19.20;99.00;;;;;;5035010;28;19923;-68
2021/08/11 10:59:22;;;;;;;11.68;5.80;;;19.20;99.90;;;;;;5055751;28;20442;-67
2021/08/11 11:01:52;;;;;;;11.38;6.13;;;19.30;99.90;;;;;;5058938;28;20024;-67
2021/08/11 11:04:46;;;;;;;7.82;6.13;;;19.20;99.90;;;;;;5039867;28;20032;-67
2021/08/11 11:07:20;;;;;;;8.60;6.25;;;19.20;99.90;;;;;;5059244;28;20052;-68
2021/08/11 11:09:47;;;;;;;8.05;5.88;;;19.20;99.90;;;;;;5059418;28;20094;-67
2021/08/11 11:12:16;;;;;;;13.57;5.60;;;19.10;99.90;;;;;;5056345;28;20555;-68
2021/08/11 11:18:20;;;;;;;10.90;7.05;;;19.20;99.90;;;;;;5055208;28;20044;-68
2021/08/11 11:20:55;;;;;;;9.13;5.70;;;19.20;99.90;;;;;;5054999;28;20048;-68
2021/08/11 11:23:41;;;;;;;12.63;6.03;;;19.30;99.90;;;;;;5054710;28;20037;-68
2021/08/11 11:26:08;;;;;;;9.40;5.93;;;19.30;99.60;;;;;;5055581;28;20120;-68
2021/08/11 11:28:56;;;;;;;8.48;5.70;;;19.20;99.60;;;;;;5037125;28;20074;-68
2021/08/11 11:31:47;;;;;;;12.35;8.48;;;19.30;99.90;;;;;;5052561;28;20114;-68
2021/08/11 11:34:21;;;;;;;14.00;9.20;;;19.30;99.90;;;;;;5056635;28;20037;-68
2021/08/11 11:36:55;;;;;;;10.25;6.82;;;19.50;99.90;;;;;;5047364;28;20045;-69
2021/08/11 11:39:32;;;;;;;8.80;6.35;;;19.80;99.10;;;;;;5077660;28;20028;-68
2021/08/11 11:42:17;;;;;;;9.27;6.55;;;20.10;99.10;;;;;;5082277;28;20120;-68
2021/08/11 11:44:46;;;;;;;9.32;6.85;;;20.20;97.00;;;;;;5061138;28;20071;-69
2021/08/11 11:47:15;;;;;;;9.35;6.75;;;20.20;96.30;;;;;;5065398;28;20049;-69
2021/08/11 11:49:42;;;;;;;11.43;7.05;;;20.20;97.60;;;;;;5066798;28;20064;-69
2021/08/11 11:52:16;;;;;;;10.55;7.45;;;20.00;98.50;;;;;;5066183;28;20047;-69
2021/08/11 11:54:45;;;;;;;9.50;6.95;;;20.20;97.10;;;;;;5066736;28;20044;-69
2021/08/11 11:57:12;;;;;;;10.35;7.03;;;20.20;96.90;;;;;;5063250;28;20048;-68
2021/08/11 11:59:44;;;;;;;11.68;6.70;;;20.50;97.70;;;;;;5046110;28;20202;-69
2021/08/11 12:02:21;;;;;;;8.20;6.35;;;20.50;97.50;;;;;;5045699;28;20037;-68
2021/08/11 12:05:04;;;;;;;9.82;6.75;;;20.60;95.20;;;;;;5046679;28;20045;-68
2021/08/11 12:07:32;;;;;;;8.80;6.32;;;20.60;96.20;;;;;;5056868;28;20055;-68
2021/08/11 12:09:59;;;;;;;10.20;6.80;;;20.50;96.90;;;;;;5078036;28;20047;-68
2021/08/11 12:12:25;;;;;;;19.70;6.60;;;20.30;97.60;;;;;;5086144;28;20044;-68
2021/08/11 12:14:51;;;;;;;12.00;6.65;;;20.30;95.40;;;;;;5068144;28;20036;-69
2021/08/11 12:17:29;;;;;;;;;;;20.40;94.60;;;;;;5051190;28;20067;-68
2021/08/11 12:19:56;;;;;;;8.25;6.07;;;20.30;96.00;;;;;;5049726;28;20423;-68
2021/08/11 12:22:40;;;;;;;11.25;6.82;;;20.10;96.20;;;;;;5049986;28;20450;-74
2021/08/11 12:25:27;;;;;;;10.38;6.70;;;20.00;98.60;;;;;;5049034;28;20489;-69
2021/08/11 12:28:12;;;;;;;11.05;6.90;;;20.00;99.20;;;;;;5050583;28;20485;-68
2021/08/11 12:30:41;;;;;;;8.68;6.47;;;20.30;96.70;;;;;;5057996;28;20036;-69
2021/08/11 12:33:08;;;;;;;8.07;5.90;;;20.60;96.90;;;;;;5069602;28;20052;-67
2021/08/11 12:35:39;;;;;;;11.57;7.15;;;20.90;96.70;;;;;;5069638;28;20052;-69
2021/08/11 12:38:04;;;;;;;12.25;7.28;;;21.00;96.50;;;;;;5069790;28;20049;-70
2021/08/11 12:40:37;;;;;;;;;;;21.00;95.50;;;;;;5077235;28;20181;-68
2021/08/11 12:43:04;;;;;;;8.27;5.90;;;20.90;96.80;;;;;;5070221;28;20373;-70
2021/08/11 12:45:52;;;;;;;9.68;6.10;;;20.70;94.80;;;;;;5068105;28;20135;-68
2021/08/11 12:48:29;;;;;;;13.10;6.55;;;20.50;97.70;;;;;;5068813;28;20045;-70
2021/08/11 12:51:19;;;;;;;16.15;6.47;;;20.30;97.50;;;;;;5069521;28;20780;-69
2021/08/11 12:53:59;;;;;;;8.30;5.97;;;20.20;98.20;;;;;;5067641;28;20068;-70
2021/08/11 12:56:25;;;;;;;8.90;6.93;;;20.10;98.30;;;;;;5068331;28;20052;-70
2021/08/11 12:59:09;;;;;;;;;;;20.10;97.90;;;;;;5063388;28;20098;-68
2021/08/11 13:01:38;;;;;;;8.45;6.22;;;20.10;97.10;;;;;;5061357;28;20441;-65
2021/08/11 13:04:06;;;;;;;8.23;5.50;;;20.10;97.70;;;;;;5050658;28;20762;-70
2021/08/11 13:06:36;;;;;;;9.18;5.95;;;20.00;97.90;;;;;;5068052;28;20068;-63
2021/08/11 13:09:03;;;;;;;9.48;6.22;;;20.20;97.10;;;;;;5081545;28;20101;-66
2021/08/11 13:12:01;;;;;;;8.50;5.63;;;20.40;96.40;;;;;;5068411;28;20609;-70
2021/08/11 13:14:54;;;;;;;9.35;5.93;;;20.60;96.30;;;;;;5068594;28;20041;-71